createdAt,value
2019-04-11T00:03:09.202Z,61.93
2019-04-11T00:07:57.216Z,64.50
2019-04-11T00:12:43.000Z,65.13
2019-04-11T00:17:29.971Z,61.70
2019-04-11T00:22:15.763Z,61.07
2019-04-11T00:27:02.405Z,60.70
2019-04-11T00:31:49.423Z,58.97
2019-04-11T00:36:36.736Z,66.03
2019-04-11T00:41:23.847Z,62.17
2019-04-11T00:46:10.008Z,62.73
2019-04-11T00:50:55.993Z,62.23
2019-04-11T00:55:41.894Z,63.50
2019-04-11T01:00:27.599Z,62.33
2019-04-11T01:05:15.044Z,59.27
2019-04-11T01:10:01.093Z,57.93
2019-04-11T01:14:47.192Z,61.43
2019-04-11T01:19:33.194Z,63.43
2019-04-11T01:24:19.733Z,62.07
2019-04-11T01:29:07.066Z,64.70
2019-04-11T01:33:53.896Z,59.53
2019-04-11T01:38:44.909Z,60.07
2019-04-11T01:43:30.760Z,60.33
2019-04-11T01:48:21.637Z,55.13
2019-04-11T01:53:08.849Z,55.77
2019-04-11T01:57:55.151Z,52.47
2019-04-11T02:02:52.909Z,56.60
2019-04-11T02:07:38.813Z,57.33
2019-04-11T02:12:24.511Z,54.43
2019-04-11T02:17:10.430Z,56.73
2019-04-11T02:22:06.302Z,57.07
2019-04-11T02:27:08.491Z,54.87
2019-04-11T02:31:55.014Z,53.50
2019-04-11T02:36:42.790Z,54.83
2019-04-11T02:41:29.866Z,52.70
2019-04-11T02:46:22.952Z,54.27
2019-04-11T02:51:05.241Z,54.77
2019-04-11T02:55:52.092Z,55.80
2019-04-11T03:00:39.990Z,55.63
2019-04-11T03:05:26.892Z,55.90
2019-04-11T03:10:14.158Z,57.37
2019-04-11T03:15:16.636Z,55.47
2019-04-11T03:20:04.340Z,56.07
2019-04-11T03:24:36.185Z,55.23
2019-04-11T03:29:24.121Z,56.43
2019-04-11T03:39:14.821Z,54.70
2019-04-11T03:43:58.221Z,54.77
2019-04-11T03:48:49.655Z,55.10
2019-04-11T03:53:25.294Z,55.80
2019-04-11T03:58:09.453Z,54.07
2019-04-11T04:02:57.440Z,55.87
2019-04-11T04:07:44.399Z,55.13
2019-04-11T04:12:31.413Z,55.77
2019-04-11T04:17:47.559Z,53.20
2019-04-11T04:22:41.908Z,53.60
2019-04-11T04:27:30.526Z,46.60
2019-04-11T04:32:16.510Z,46.90
2019-04-11T04:37:03.649Z,46.50
2019-04-11T04:42:00.549Z,47.27
2019-04-11T04:46:52.597Z,48.17
2019-04-11T04:51:26.914Z,47.73
2019-04-11T04:56:13.452Z,46.37
2019-04-11T05:01:01.409Z,44.83
2019-04-11T05:05:48.505Z,45.00
2019-04-11T05:10:35.938Z,43.17
2019-04-11T05:15:21.810Z,44.40
2019-04-11T05:20:09.157Z,44.53
2019-04-11T05:24:56.030Z,44.13
2019-04-11T05:29:43.693Z,42.03
2019-04-11T05:34:29.781Z,43.20
2019-04-11T05:39:16.775Z,42.70
2019-04-11T05:44:07.661Z,42.83
2019-04-11T05:49:00.419Z,41.03
2019-04-11T05:53:43.773Z,41.97
2019-04-11T05:58:30.381Z,42.27
2019-04-11T06:03:17.592Z,41.13
2019-04-11T06:08:06.158Z,40.27
2019-04-11T06:13:10.096Z,40.43
2019-04-11T06:17:56.619Z,39.57
2019-04-11T06:22:48.073Z,39.03
2019-04-11T06:27:51.505Z,38.17
2019-04-11T06:32:56.293Z,38.23
2019-04-11T06:38:08.140Z,36.67
2019-04-11T06:43:03.633Z,36.33
2019-04-11T06:47:57.063Z,34.43
2019-04-11T06:52:43.398Z,35.00
2019-04-11T06:57:30.034Z,35.23
2019-04-11T07:02:19.764Z,34.43
2019-04-11T07:07:06.407Z,36.57
2019-04-11T07:11:55.162Z,32.87
2019-04-11T07:17:04.775Z,32.17
2019-04-11T07:21:48.252Z,31.07
2019-04-11T07:26:43.769Z,32.20
2019-04-11T07:31:57.590Z,31.13
2019-04-11T07:37:02.428Z,31.53
2019-04-11T07:42:07.042Z,31.20
2019-04-11T07:47:14.624Z,31.60
2019-04-11T07:51:58.060Z,28.67
2019-04-11T07:57:04.026Z,28.93
2019-04-11T08:02:08.693Z,28.77
2019-04-11T08:07:04.457Z,27.60
2019-04-11T08:12:00.335Z,27.40
2019-04-11T08:17:11.498Z,27.07
2019-04-11T08:22:06.378Z,27.37
2019-04-11T08:27:09.859Z,28.07
2019-04-11T08:32:27.429Z,25.07
2019-04-11T08:37:51.894Z,24.80
2019-04-11T08:43:02.929Z,25.37
2019-04-11T08:47:54.531Z,26.50
2019-04-11T08:52:52.032Z,25.97
2019-04-11T08:57:44.514Z,26.87
2019-04-11T09:02:37.294Z,25.20
2019-04-11T09:07:29.696Z,24.13
2019-04-11T09:12:18.431Z,25.60
2019-04-11T09:17:24.483Z,23.77
2019-04-11T09:22:35.387Z,25.50
2019-04-11T09:27:40.597Z,25.27
2019-04-11T09:32:46.526Z,24.70
2019-04-11T09:37:37.881Z,25.80
2019-04-11T09:42:43.026Z,23.93
2019-04-11T09:47:55.189Z,24.97
2019-04-11T09:52:45.308Z,25.37
2019-04-11T09:57:44.161Z,23.70
2019-04-11T10:02:52.777Z,23.30
2019-04-11T10:08:06.887Z,24.07
2019-04-11T10:13:10.829Z,24.80
2019-04-11T10:18:22.861Z,24.47
2019-04-11T10:23:32.751Z,24.47
2019-04-11T10:28:37.580Z,23.97
2019-04-11T10:33:51.482Z,23.63
2019-04-11T10:38:38.324Z,23.10
2019-04-11T10:43:24.593Z,22.53
2019-04-11T10:48:11.660Z,22.53
2019-04-11T10:53:02.761Z,23.40
2019-04-11T10:58:02.695Z,23.70
2019-04-11T11:03:07.398Z,23.83
2019-04-11T11:07:55.176Z,24.67
2019-04-11T11:13:01.730Z,22.70
2019-04-11T11:18:42.864Z,23.57
2019-04-11T11:23:29.108Z,24.70
2019-04-11T11:28:17.924Z,24.13
2019-04-11T11:33:04.043Z,23.73
2019-04-11T11:37:53.872Z,26.17
2019-04-11T11:43:08.579Z,25.17
2019-04-11T11:48:15.865Z,25.73
2019-04-11T11:53:16.601Z,26.20
2019-04-11T11:58:37.526Z,24.93
2019-04-11T12:03:42.521Z,25.33
2019-04-11T12:09:02.494Z,25.80
2019-04-11T12:14:13.140Z,26.63
2019-04-11T12:19:22.610Z,26.87
2019-04-11T12:24:30.541Z,27.13
2019-04-11T12:29:38.491Z,25.97
2019-04-11T12:34:59.789Z,27.63
2019-04-11T12:40:04.726Z,27.70
2019-04-11T12:45:08.066Z,28.00
2019-04-11T12:50:15.550Z,27.43
2019-04-11T12:55:01.699Z,28.23
2019-04-11T12:59:49.120Z,26.87
2019-04-11T13:04:45.740Z,26.00
2019-04-11T13:09:53.674Z,26.07
2019-04-11T13:14:48.444Z,25.77
2019-04-11T13:20:11.520Z,24.63
2019-04-11T13:25:19.117Z,24.80
2019-04-11T13:30:33.453Z,24.33
2019-04-11T13:35:36.759Z,24.73
2019-04-11T13:40:41.708Z,24.70
2019-04-11T13:45:27.959Z,25.57
2019-04-11T13:50:16.830Z,26.73
2019-04-11T13:55:10.983Z,26.00
2019-04-11T14:00:14.536Z,25.80
2019-04-11T14:05:00.343Z,25.83
2019-04-11T14:09:48.836Z,23.40
2019-04-11T14:14:36.838Z,27.27
2019-04-11T14:19:34.935Z,25.30
2019-04-11T14:24:41.878Z,26.53
2019-04-11T14:29:39.580Z,24.67
2019-04-11T14:34:42.997Z,26.03
2019-04-11T14:39:31.535Z,26.20
2019-04-11T14:44:18.760Z,26.00
2019-04-11T14:49:10.495Z,26.37
2019-04-11T14:54:11.656Z,26.17
2019-04-11T14:59:30.766Z,26.27
2019-04-11T15:04:38.700Z,24.83
2019-04-11T15:09:58.727Z,25.43
2019-04-11T15:15:01.927Z,26.33
2019-04-11T15:19:52.719Z,28.30
2019-04-11T15:24:39.596Z,26.07
2019-04-11T15:29:29.240Z,26.07
2019-04-11T15:34:33.334Z,26.03
2019-04-11T15:39:44.512Z,26.13
2019-04-11T15:44:52.401Z,26.10
2019-04-11T15:50:09.617Z,27.03
2019-04-11T15:55:14.887Z,26.33
2019-04-11T16:00:26.062Z,25.90
2019-04-11T16:05:49.943Z,26.17
2019-04-11T16:10:41.834Z,25.33
2019-04-11T16:15:30.371Z,25.70
2019-04-11T16:20:21.166Z,27.03
2019-04-11T16:25:13.173Z,26.60
2019-04-11T16:30:03.947Z,26.10
2019-04-11T16:34:55.707Z,26.93
2019-04-11T16:39:59.269Z,25.93
2019-04-11T16:45:24.766Z,26.80
2019-04-11T16:50:10.001Z,27.20
2019-04-11T16:54:55.866Z,26.50
2019-04-11T16:59:41.859Z,27.67
2019-04-11T17:04:27.966Z,27.57
2019-04-11T17:09:26.546Z,26.10
2019-04-11T17:14:11.906Z,29.00
2019-04-11T17:18:57.714Z,30.23
2019-04-11T17:23:46.775Z,30.90
2019-04-11T17:28:32.094Z,31.90
2019-04-11T17:33:19.343Z,31.33
2019-04-11T17:38:08.029Z,32.10
2019-04-11T17:42:54.390Z,31.70
2019-04-11T17:47:40.649Z,33.43
2019-04-11T17:52:26.703Z,33.77
2019-04-11T17:57:12.695Z,33.57
2019-04-11T18:01:58.661Z,32.77
2019-04-11T18:06:46.943Z,33.30
2019-04-11T18:11:32.211Z,33.27
2019-04-11T18:16:18.523Z,33.97
2019-04-11T18:21:07.042Z,33.73
2019-04-11T18:25:52.207Z,33.43
2019-04-11T18:30:38.313Z,35.10
2019-04-11T18:35:24.537Z,33.73
2019-04-11T18:40:11.696Z,32.87
2019-04-11T18:44:58.124Z,34.50
2019-04-11T18:49:44.426Z,34.70
2019-04-11T18:54:31.598Z,34.07
2019-04-11T18:59:19.262Z,35.00
2019-04-11T19:04:05.690Z,35.40
2019-04-11T19:08:51.818Z,35.13
2019-04-11T19:13:37.990Z,33.33
2019-04-11T19:18:24.302Z,36.60
2019-04-11T19:23:10.464Z,36.13
2019-04-11T19:27:57.378Z,37.37
2019-04-11T19:32:43.613Z,36.13
2019-04-11T19:37:30.404Z,35.63
2019-04-11T19:42:19.544Z,34.07
2019-04-11T19:47:05.229Z,34.63
2019-04-11T19:51:51.478Z,38.07
2019-04-11T19:56:59.489Z,35.97
2019-04-11T20:01:45.802Z,37.90
2019-04-11T20:06:32.418Z,36.40
2019-04-11T20:11:18.921Z,37.60
2019-04-11T20:16:05.381Z,38.17
2019-04-11T20:20:52.291Z,36.83
2019-04-11T20:25:38.761Z,37.87
2019-04-11T20:30:25.459Z,40.40
2019-04-11T20:35:16.085Z,39.10
2019-04-11T20:40:02.260Z,39.03
2019-04-11T20:44:48.149Z,38.67
2019-04-11T20:49:36.133Z,39.37
2019-04-11T20:54:22.318Z,38.47
2019-04-11T20:59:10.322Z,36.33
2019-04-11T21:04:00.097Z,35.53
2019-04-11T21:08:44.161Z,34.70
2019-04-11T21:13:30.066Z,36.93
2019-04-11T21:18:16.270Z,34.80
2019-04-11T21:23:02.958Z,36.60
2019-04-11T21:27:49.150Z,39.30
2019-04-11T21:32:35.087Z,38.23
2019-04-11T21:37:21.046Z,36.23
2019-04-11T21:42:07.058Z,39.40
2019-04-11T21:46:52.934Z,37.83
2019-04-11T21:51:41.273Z,39.03
2019-04-11T21:56:26.255Z,35.30
2019-04-11T22:01:15.252Z,35.10
2019-04-11T22:06:01.267Z,38.63
2019-04-11T22:10:47.295Z,35.63
2019-04-11T22:15:33.344Z,40.60
2019-04-11T22:20:19.320Z,37.80
2019-04-11T22:25:05.353Z,42.97
2019-04-11T22:29:55.005Z,38.03
2019-04-11T22:34:44.229Z,32.83
2019-04-11T22:39:31.508Z,33.83
2019-04-11T22:44:18.015Z,32.27
2019-04-11T22:49:03.837Z,37.03
2019-04-11T22:53:59.948Z,32.87
2019-04-11T22:58:38.209Z,32.23
2019-04-11T23:03:39.015Z,33.33
2019-04-11T23:08:24.937Z,31.13
2019-04-11T23:13:10.893Z,35.47
2019-04-11T23:17:56.725Z,30.80
2019-04-11T23:22:42.855Z,30.50
2019-04-11T23:27:29.079Z,33.57
2019-04-11T23:32:14.815Z,33.60
2019-04-11T23:37:00.475Z,38.63
2019-04-11T23:41:49.485Z,42.47
2019-04-11T23:46:33.612Z,38.73
2019-04-11T23:51:19.479Z,36.73
2019-04-11T23:56:05.241Z,38.87
